sensor_id;sensor_type;location;lat;lon;timestamp;pressure;altitude;pressure_sealevel;temperature;humidity
53689;BME280;39583;54.682;30.662;2023-07-13T00:01:17;99042.78;;;9.14;81.93
53689;BME280;39583;54.682;30.662;2023-07-13T07:07:36;98913.78;;;22.46;46.47
53689;BME280;39583;54.682;30.662;2023-07-13T07:10:05;98905.31;;;22.56;47.02
53689;BME280;39583;54.682;30.662;2023-07-13T07:12:33;98897.66;;;22.66;46.36
53689;BME280;39583;54.682;30.662;2023-07-13T07:15:01;98898.38;;;22.81;46.73
53689;BME280;39583;54.682;30.662;2023-07-13T07:17:28;98901.19;;;22.89;46.58
53689;BME280;39583;54.682;30.662;2023-07-13T07:19:56;98899.63;;;22.97;47.60
53689;BME280;39583;54.682;30.662;2023-07-13T07:22:24;98883.81;;;23.03;46.41
53689;BME280;39583;54.682;30.662;2023-07-13T07:24:54;98891.72;;;23.04;45.54
53689;BME280;39583;54.682;30.662;2023-07-13T07:27:22;98890.63;;;23.05;45.37
53689;BME280;39583;54.682;30.662;2023-07-13T07:29:53;98896.03;;;23.19;44.87
53689;BME280;39583;54.682;30.662;2023-07-13T07:32:43;98861.56;;;23.13;44.54
53689;BME280;39583;54.682;30.662;2023-07-13T07:35:14;98886.38;;;23.39;42.65
53689;BME280;39583;54.682;30.662;2023-07-13T07:37:43;98887.56;;;23.46;43.10
53689;BME280;39583;54.682;30.662;2023-07-13T07:40:13;98891.75;;;23.52;42.11
53689;BME280;39583;54.682;30.662;2023-07-13T07:42:44;98895.97;;;23.50;41.39
53689;BME280;39583;54.682;30.662;2023-07-13T07:45:13;98867.94;;;23.31;40.46
53689;BME280;39583;54.682;30.662;2023-07-13T07:47:42;98901.28;;;23.46;40.88
53689;BME280;39583;54.682;30.662;2023-07-13T07:50:11;98881.75;;;23.57;41.37
53689;BME280;39583;54.682;30.662;2023-07-13T07:52:41;98899.28;;;23.78;41.71
53689;BME280;39583;54.682;30.662;2023-07-13T07:55:09;98896.56;;;23.95;40.85
53689;BME280;39583;54.682;30.662;2023-07-13T07:57:40;98891.56;;;23.97;40.76
53689;BME280;39583;54.682;30.662;2023-07-13T08:00:11;98888.00;;;24.05;40.17
53689;BME280;39583;54.682;30.662;2023-07-13T08:02:43;98890.28;;;24.12;39.87
53689;BME280;39583;54.682;30.662;2023-07-13T08:05:14;98895.47;;;24.13;39.74
53689;BME280;39583;54.682;30.662;2023-07-13T08:07:46;98896.78;;;24.25;39.35
53689;BME280;39583;54.682;30.662;2023-07-13T08:10:16;98894.03;;;24.33;38.63
53689;BME280;39583;54.682;30.662;2023-07-13T08:12:44;98906.50;;;24.48;37.92
53689;BME280;39583;54.682;30.662;2023-07-13T08:15:32;98903.88;;;24.60;37.74
53689;BME280;39583;54.682;30.662;2023-07-13T08:18:01;98905.69;;;24.56;37.40
53689;BME280;39583;54.682;30.662;2023-07-13T08:20:30;98905.34;;;24.58;38.64
53689;BME280;39583;54.682;30.662;2023-07-13T08:22:57;98896.56;;;24.90;38.49
53689;BME280;39583;54.682;30.662;2023-07-13T08:25:25;98902.00;;;24.99;37.92
53689;BME280;39583;54.682;30.662;2023-07-13T08:27:52;98893.75;;;24.99;38.16
53689;BME280;39583;54.682;30.662;2023-07-13T08:30:20;98896.72;;;25.03;37.39
53689;BME280;39583;54.682;30.662;2023-07-13T08:32:47;98900.75;;;25.05;37.43
53689;BME280;39583;54.682;30.662;2023-07-13T08:35:15;98898.50;;;24.90;37.52
53689;BME280;39583;54.682;30.662;2023-07-13T08:37:43;98890.88;;;24.87;38.03
53689;BME280;39583;54.682;30.662;2023-07-13T08:40:11;98892.66;;;24.91;38.27
53689;BME280;39583;54.682;30.662;2023-07-13T08:42:44;98890.03;;;24.95;37.76
53689;BME280;39583;54.682;30.662;2023-07-13T08:45:22;98902.00;;;24.99;37.46
53689;BME280;39583;54.682;30.662;2023-07-13T08:48:05;98893.47;;;25.01;37.72
53689;BME280;39583;54.682;30.662;2023-07-13T08:51:04;98897.16;;;25.13;37.73
53689;BME280;39583;54.682;30.662;2023-07-13T08:53:36;98894.47;;;25.34;37.77
53689;BME280;39583;54.682;30.662;2023-07-13T08:56:11;98899.59;;;25.53;38.07
53689;BME280;39583;54.682;30.662;2023-07-13T08:58:41;98857.09;;;25.54;37.97
53689;BME280;39583;54.682;30.662;2023-07-13T09:01:16;98897.66;;;25.83;37.97
53689;BME280;39583;54.682;30.662;2023-07-13T09:04:04;98888.38;;;25.87;37.87
53689;BME280;39583;54.682;30.662;2023-07-13T09:06:42;98882.84;;;25.87;37.81
53689;BME280;39583;54.682;30.662;2023-07-13T09:12:50;98884.59;;;25.71;38.30
53689;BME280;39583;54.682;30.662;2023-07-13T09:15:26;98884.28;;;25.94;38.04
53689;BME280;39583;54.682;30.662;2023-07-13T09:17:58;98876.53;;;26.08;37.79
53689;BME280;39583;54.682;30.662;2023-07-13T09:20:36;98889.13;;;26.17;37.91
53689;BME280;39583;54.682;30.662;2023-07-13T09:23:07;98879.78;;;26.31;38.09
53689;BME280;39583;54.682;30.662;2023-07-13T09:25:39;98881.50;;;26.35;38.32
53689;BME280;39583;54.682;30.662;2023-07-13T09:28:16;98882.59;;;26.43;38.53
53689;BME280;39583;54.682;30.662;2023-07-13T09:31:08;98879.63;;;26.48;38.53
53689;BME280;39583;54.682;30.662;2023-07-13T09:33:40;98873.38;;;26.39;38.20
53689;BME280;39583;54.682;30.662;2023-07-13T09:36:22;98879.09;;;26.34;38.64
53689;BME280;39583;54.682;30.662;2023-07-13T09:41:48;98873.28;;;26.27;39.42
53689;BME280;39583;54.682;30.662;2023-07-13T09:44:36;98871.50;;;26.10;39.63
53689;BME280;39583;54.682;30.662;2023-07-13T09:47:17;98881.31;;;25.99;40.37
53689;BME280;39583;54.682;30.662;2023-07-13T09:49:45;98871.34;;;25.85;40.42
53689;BME280;39583;54.682;30.662;2023-07-13T09:52:15;98875.16;;;25.72;40.90
53689;BME280;39583;54.682;30.662;2023-07-13T09:54:46;98870.81;;;25.63;41.04
53689;BME280;39583;54.682;30.662;2023-07-13T09:57:18;98874.84;;;25.65;41.54
53689;BME280;39583;54.682;30.662;2023-07-13T09:59:48;98871.38;;;25.47;42.00
53689;BME280;39583;54.682;30.662;2023-07-13T10:05:13;98863.28;;;25.13;42.62
53689;BME280;39583;54.682;30.662;2023-07-13T10:07:44;98865.75;;;25.06;43.35
53689;BME280;39583;54.682;30.662;2023-07-13T10:10:20;98847.94;;;24.94;43.01
53689;BME280;39583;54.682;30.662;2023-07-13T10:12:49;98862.31;;;25.09;43.09
53689;BME280;39583;54.682;30.662;2023-07-13T10:15:20;98861.53;;;25.08;43.51
53689;BME280;39583;54.682;30.662;2023-07-13T10:17:53;98865.22;;;25.12;43.26
53689;BME280;39583;54.682;30.662;2023-07-13T10:20:22;98856.09;;;25.29;43.40
53689;BME280;39583;54.682;30.662;2023-07-13T10:23:00;98840.91;;;25.52;43.05
53689;BME280;39583;54.682;30.662;2023-07-13T10:25:35;98846.88;;;26.05;42.68
53689;BME280;39583;54.682;30.662;2023-07-13T10:28:30;98852.75;;;26.57;41.79
53689;BME280;39583;54.682;30.662;2023-07-13T10:30:59;98845.28;;;27.03;41.32
53689;BME280;39583;54.682;30.662;2023-07-13T10:33:28;98840.66;;;27.07;41.51
53689;BME280;39583;54.682;30.662;2023-07-13T10:39:04;98844.59;;;27.18;41.48
53689;BME280;39583;54.682;30.662;2023-07-13T10:41:39;98845.34;;;26.94;41.80
53689;BME280;39583;54.682;30.662;2023-07-13T10:44:18;98843.31;;;26.58;42.62
53689;BME280;39583;54.682;30.662;2023-07-13T10:46:47;98848.41;;;26.14;43.37
53689;BME280;39583;54.682;30.662;2023-07-13T10:49:16;98847.78;;;25.67;44.78
53689;BME280;39583;54.682;30.662;2023-07-13T10:51:45;98838.91;;;25.23;45.77
53689;BME280;39583;54.682;30.662;2023-07-13T10:54:31;98852.31;;;25.04;46.46
53689;BME280;39583;54.682;30.662;2023-07-13T10:57:22;98848.75;;;24.86;46.72
53689;BME280;39583;54.682;30.662;2023-07-13T11:00:14;98847.81;;;24.82;46.67
53689;BME280;39583;54.682;30.662;2023-07-13T11:02:57;98849.41;;;24.83;46.54
53689;BME280;39583;54.682;30.662;2023-07-13T11:05:30;98843.09;;;24.83;46.89
53689;BME280;39583;54.682;30.662;2023-07-13T11:08:20;98855.94;;;24.79;47.17
53689;BME280;39583;54.682;30.662;2023-07-13T11:10:52;98848.97;;;24.73;47.74
53689;BME280;39583;54.682;30.662;2023-07-13T11:28:16;98843.50;;;24.64;49.26
53689;BME280;39583;54.682;30.662;2023-07-13T11:33:20;98847.72;;;24.53;50.12
53689;BME280;39583;54.682;30.662;2023-07-13T11:36:00;98850.63;;;24.48;50.96
53689;BME280;39583;54.682;30.662;2023-07-13T11:38:37;98843.38;;;24.43;51.15
53689;BME280;39583;54.682;30.662;2023-07-13T11:41:30;98849.53;;;24.49;51.16
53689;BME280;39583;54.682;30.662;2023-07-13T11:44:07;98839.94;;;24.55;51.28
53689;BME280;39583;54.682;30.662;2023-07-13T11:46:38;98847.16;;;24.85;50.66
53689;BME280;39583;54.682;30.662;2023-07-13T11:49:07;98843.50;;;25.19;50.58
53689;BME280;39583;54.682;30.662;2023-07-13T11:51:36;98840.00;;;25.61;49.85
53689;BME280;39583;54.682;30.662;2023-07-13T11:54:10;98830.38;;;25.96;49.30
53689;BME280;39583;54.682;30.662;2023-07-13T11:56:43;98832.16;;;26.34;48.61
53689;BME280;39583;54.682;30.662;2023-07-13T11:59:12;98826.97;;;26.53;48.27
53689;BME280;39583;54.682;30.662;2023-07-13T12:01:46;98827.56;;;26.59;47.58
53689;BME280;39583;54.682;30.662;2023-07-13T12:04:25;98820.56;;;26.61;47.21
53689;BME280;39583;54.682;30.662;2023-07-13T12:07:06;98829.31;;;26.75;46.57
53689;BME280;39583;54.682;30.662;2023-07-13T12:09:37;98816.09;;;26.81;47.03
53689;BME280;39583;54.682;30.662;2023-07-13T12:12:15;98826.06;;;27.07;46.35
53689;BME280;39583;54.682;30.662;2023-07-13T12:14:45;98809.69;;;27.50;45.86
53689;BME280;39583;54.682;30.662;2023-07-13T12:17:20;98817.75;;;27.80;44.89
53689;BME280;39583;54.682;30.662;2023-07-13T12:19:50;98797.34;;;27.60;44.96
53689;BME280;39583;54.682;30.662;2023-07-13T12:22:19;98807.47;;;27.80;44.83
53689;BME280;39583;54.682;30.662;2023-07-13T12:24:48;98802.16;;;27.87;44.36
53689;BME280;39583;54.682;30.662;2023-07-13T12:27:20;98799.41;;;27.87;44.36
53689;BME280;39583;54.682;30.662;2023-07-13T12:30:00;98793.88;;;27.87;43.75
53689;BME280;39583;54.682;30.662;2023-07-13T12:32:28;98797.41;;;28.00;43.94
53689;BME280;39583;54.682;30.662;2023-07-13T12:35:15;98793.69;;;27.96;44.21
53689;BME280;39583;54.682;30.662;2023-07-13T12:37:46;98784.38;;;27.48;44.69
53689;BME280;39583;54.682;30.662;2023-07-13T12:40:19;98796.34;;;27.03;45.15
53689;BME280;39583;54.682;30.662;2023-07-13T12:42:47;98792.94;;;26.61;46.28
53689;BME280;39583;54.682;30.662;2023-07-13T12:45:27;98787.47;;;26.40;46.96
53689;BME280;39583;54.682;30.662;2023-07-13T12:48:04;98783.72;;;26.45;46.45
53689;BME280;39583;54.682;30.662;2023-07-13T12:50:45;98773.19;;;26.71;45.73
53689;BME280;39583;54.682;30.662;2023-07-13T12:53:28;98764.91;;;26.96;45.31
53689;BME280;39583;54.682;30.662;2023-07-13T12:56:01;98765.50;;;27.26;45.36
53689;BME280;39583;54.682;30.662;2023-07-13T12:58:35;98762.56;;;27.47;44.42
53689;BME280;39583;54.682;30.662;2023-07-13T13:01:04;98765.22;;;27.68;44.39
53689;BME280;39583;54.682;30.662;2023-07-13T13:06:04;98757.25;;;28.22;43.70
53689;BME280;39583;54.682;30.662;2023-07-13T13:08:33;98757.81;;;28.71;42.64
53689;BME280;39583;54.682;30.662;2023-07-13T13:11:02;98757.00;;;28.39;42.87
53689;BME280;39583;54.682;30.662;2023-07-13T13:13:29;98755.41;;;27.98;43.33
53689;BME280;39583;54.682;30.662;2023-07-13T13:16:23;98752.59;;;27.82;44.01
53689;BME280;39583;54.682;30.662;2023-07-13T13:18:50;98747.94;;;28.27;43.19
53689;BME280;39583;54.682;30.662;2023-07-13T13:21:18;98742.00;;;28.56;42.75
53689;BME280;39583;54.682;30.662;2023-07-13T13:23:46;98746.19;;;28.82;42.08
53689;BME280;39583;54.682;30.662;2023-07-13T13:39:38;98728.97;;;30.13;39.95
53689;BME280;39583;54.682;30.662;2023-07-13T13:42:11;98721.41;;;29.94;40.25
53689;BME280;39583;54.682;30.662;2023-07-13T13:44:38;98722.66;;;29.77;39.54
53689;BME280;39583;54.682;30.662;2023-07-13T13:47:21;98703.59;;;29.21;39.93
53689;BME280;39583;54.682;30.662;2023-07-13T13:49:55;98726.88;;;29.01;40.03
53689;BME280;39583;54.682;30.662;2023-07-13T13:52:23;98725.25;;;28.37;41.20
53689;BME280;39583;54.682;30.662;2023-07-13T13:54:51;98721.66;;;27.92;41.82
53689;BME280;39583;54.682;30.662;2023-07-13T13:57:24;98696.69;;;27.89;41.77
53689;BME280;39583;54.682;30.662;2023-07-13T13:59:55;98727.66;;;28.38;41.89
53689;BME280;39583;54.682;30.662;2023-07-13T14:02:27;98729.31;;;28.71;41.09
53689;BME280;39583;54.682;30.662;2023-07-13T14:05:00;98727.63;;;28.66;40.92
53689;BME280;39583;54.682;30.662;2023-07-13T14:07:28;98731.34;;;28.58;40.42
53689;BME280;39583;54.682;30.662;2023-07-13T14:10:00;98718.47;;;28.50;40.95
53689;BME280;39583;54.682;30.662;2023-07-13T14:12:28;98727.63;;;28.66;39.84
53689;BME280;39583;54.682;30.662;2023-07-13T14:14:57;98728.50;;;28.39;40.25
53689;BME280;39583;54.682;30.662;2023-07-13T14:17:27;98726.78;;;28.50;40.44
53689;BME280;39583;54.682;30.662;2023-07-13T14:19:55;98726.25;;;28.76;40.41
53689;BME280;39583;54.682;30.662;2023-07-13T14:22:26;98707.06;;;28.67;40.35
53689;BME280;39583;54.682;30.662;2023-07-13T14:24:55;98710.94;;;29.14;40.31
53689;BME280;39583;54.682;30.662;2023-07-13T14:27:24;98711.81;;;29.33;40.03
53689;BME280;39583;54.682;30.662;2023-07-13T14:29:52;98719.22;;;29.29;40.10
53689;BME280;39583;54.682;30.662;2023-07-13T14:32:19;98708.47;;;29.08;39.95
53689;BME280;39583;54.682;30.662;2023-07-13T14:34:47;98715.47;;;28.71;40.51
53689;BME280;39583;54.682;30.662;2023-07-13T14:37:14;98718.31;;;28.59;40.84
53689;BME280;39583;54.682;30.662;2023-07-13T14:39:44;98718.03;;;28.64;41.32
53689;BME280;39583;54.682;30.662;2023-07-13T14:42:15;98727.25;;;28.52;40.79
53689;BME280;39583;54.682;30.662;2023-07-13T14:56:11;98714.53;;;28.35;42.10
53689;BME280;39583;54.682;30.662;2023-07-13T14:58:39;98705.75;;;28.17;42.27
53689;BME280;39583;54.682;30.662;2023-07-13T15:01:15;98704.69;;;27.78;42.50
53689;BME280;39583;54.682;30.662;2023-07-13T15:03:49;98712.34;;;27.45;43.13
53689;BME280;39583;54.682;30.662;2023-07-13T15:06:18;98715.97;;;27.21;43.92
53689;BME280;39583;54.682;30.662;2023-07-13T15:08:46;98712.28;;;27.29;44.25
53689;BME280;39583;54.682;30.662;2023-07-13T15:11:16;98712.72;;;27.31;43.27
53689;BME280;39583;54.682;30.662;2023-07-13T15:13:43;98689.97;;;27.22;42.90
53689;BME280;39583;54.682;30.662;2023-07-13T15:16:22;98711.00;;;27.39;42.53
53689;BME280;39583;54.682;30.662;2023-07-13T15:18:51;98719.50;;;27.46;42.17
53689;BME280;39583;54.682;30.662;2023-07-13T15:21:21;98714.53;;;27.51;42.86
53689;BME280;39583;54.682;30.662;2023-07-13T15:23:50;98697.38;;;27.46;42.06
53689;BME280;39583;54.682;30.662;2023-07-13T15:26:18;98712.16;;;27.38;42.74
53689;BME280;39583;54.682;30.662;2023-07-13T15:28:46;98710.91;;;27.23;42.26
53689;BME280;39583;54.682;30.662;2023-07-13T15:33:48;98717.25;;;26.74;43.12
53689;BME280;39583;54.682;30.662;2023-07-13T15:36:17;98714.13;;;26.52;43.38
53689;BME280;39583;54.682;30.662;2023-07-13T15:38:46;98711.56;;;27.32;41.90
53689;BME280;39583;54.682;30.662;2023-07-13T15:43:44;98712.84;;;29.10;38.60
53689;BME280;39583;54.682;30.662;2023-07-13T15:46:11;98708.63;;;29.89;37.32
53689;BME280;39583;54.682;30.662;2023-07-13T15:48:39;98694.13;;;30.38;36.05
53689;BME280;39583;54.682;30.662;2023-07-13T15:51:12;98722.22;;;31.05;34.84
53689;BME280;39583;54.682;30.662;2023-07-13T15:53:42;98705.56;;;31.32;34.22
53689;BME280;39583;54.682;30.662;2023-07-13T15:56:24;98707.25;;;31.70;33.78
53689;BME280;39583;54.682;30.662;2023-07-13T15:58:53;98717.47;;;32.26;33.29
53689;BME280;39583;54.682;30.662;2023-07-13T16:01:21;98724.59;;;32.61;32.29
53689;BME280;39583;54.682;30.662;2023-07-13T16:03:50;98725.03;;;32.66;31.67
53689;BME280;39583;54.682;30.662;2023-07-13T16:06:23;98715.47;;;32.64;31.52
53689;BME280;39583;54.682;30.662;2023-07-13T16:08:53;98720.94;;;32.53;30.88
53689;BME280;39583;54.682;30.662;2023-07-13T16:11:26;98720.22;;;32.63;30.39
53689;BME280;39583;54.682;30.662;2023-07-13T16:13:54;98721.13;;;32.74;30.32
53689;BME280;39583;54.682;30.662;2023-07-13T16:16:33;98719.44;;;32.66;29.98
53689;BME280;39583;54.682;30.662;2023-07-13T16:19:04;98728.41;;;32.82;30.18
53689;BME280;39583;54.682;30.662;2023-07-13T16:21:36;98708.34;;;32.70;29.51
53689;BME280;39583;54.682;30.662;2023-07-13T16:24:16;98726.78;;;32.81;29.87
53689;BME280;39583;54.682;30.662;2023-07-13T16:26:43;98729.84;;;33.17;29.29
53689;BME280;39583;54.682;30.662;2023-07-13T16:29:12;98728.41;;;33.41;28.51
53689;BME280;39583;54.682;30.662;2023-07-13T16:31:40;98728.22;;;33.16;28.66
53689;BME280;39583;54.682;30.662;2023-07-13T16:34:08;98729.53;;;33.33;28.40
53689;BME280;39583;54.682;30.662;2023-07-13T16:36:37;98724.09;;;33.47;28.11
53689;BME280;39583;54.682;30.662;2023-07-13T16:39:12;98722.97;;;33.69;27.47
53689;BME280;39583;54.682;30.662;2023-07-13T16:41:42;98726.34;;;34.00;27.53
53689;BME280;39583;54.682;30.662;2023-07-13T16:44:16;98714.84;;;34.37;27.04
53689;BME280;39583;54.682;30.662;2023-07-13T16:46:47;98711.69;;;34.56;27.32
53689;BME280;39583;54.682;30.662;2023-07-13T16:49:25;98710.81;;;34.35;27.19
53689;BME280;39583;54.682;30.662;2023-07-13T16:51:55;98716.25;;;33.85;27.76
53689;BME280;39583;54.682;30.662;2023-07-13T16:54:25;98726.25;;;33.17;28.74
53689;BME280;39583;54.682;30.662;2023-07-13T16:56:52;98729.66;;;32.14;29.93
53689;BME280;39583;54.682;30.662;2023-07-13T16:59:29;98726.44;;;31.75;30.61
53689;BME280;39583;54.682;30.662;2023-07-13T17:02:00;98732.34;;;31.44;30.82
53689;BME280;39583;54.682;30.662;2023-07-13T17:04:30;98730.59;;;31.32;31.19
53689;BME280;39583;54.682;30.662;2023-07-13T17:06:59;98730.13;;;31.26;31.16
53689;BME280;39583;54.682;30.662;2023-07-13T17:09:26;98739.50;;;30.92;31.60
53689;BME280;39583;54.682;30.662;2023-07-13T17:11:54;98735.69;;;30.77;31.79
53689;BME280;39583;54.682;30.662;2023-07-13T17:14:22;98740.84;;;31.01;31.48
53689;BME280;39583;54.682;30.662;2023-07-13T17:16:52;98740.69;;;31.17;31.42
53689;BME280;39583;54.682;30.662;2023-07-13T17:19:27;98740.16;;;31.34;31.26
53689;BME280;39583;54.682;30.662;2023-07-13T17:21:55;98734.28;;;31.39;31.10
53689;BME280;39583;54.682;30.662;2023-07-13T17:24:27;98733.91;;;31.41;31.22
53689;BME280;39583;54.682;30.662;2023-07-13T17:26:56;98741.91;;;31.46;31.26
53689;BME280;39583;54.682;30.662;2023-07-13T17:29:25;98743.69;;;31.31;31.52
53689;BME280;39583;54.682;30.662;2023-07-13T17:31:53;98746.50;;;31.31;31.68
53689;BME280;39583;54.682;30.662;2023-07-13T17:34:20;98746.63;;;31.16;31.88
53689;BME280;39583;54.682;30.662;2023-07-13T17:36:48;98747.13;;;30.98;32.14
53689;BME280;39583;54.682;30.662;2023-07-13T17:39:18;98741.66;;;30.79;32.44
53689;BME280;39583;54.682;30.662;2023-07-13T17:41:46;98753.94;;;30.55;33.04
53689;BME280;39583;54.682;30.662;2023-07-13T17:44:15;98751.34;;;30.04;33.68
53689;BME280;39583;54.682;30.662;2023-07-13T17:46:47;98749.81;;;29.49;34.38
53689;BME280;39583;54.682;30.662;2023-07-13T17:49:19;98759.44;;;29.04;35.40
53689;BME280;39583;54.682;30.662;2023-07-13T17:51:48;98754.84;;;28.64;36.07
53689;BME280;39583;54.682;30.662;2023-07-13T17:54:17;98761.25;;;28.37;36.32
53689;BME280;39583;54.682;30.662;2023-07-13T17:56:46;98759.69;;;27.96;37.20
53689;BME280;39583;54.682;30.662;2023-07-13T17:59:14;98766.63;;;27.49;38.01
53689;BME280;39583;54.682;30.662;2023-07-13T18:01:42;98768.03;;;27.07;38.76
53689;BME280;39583;54.682;30.662;2023-07-13T18:04:13;98769.81;;;26.66;39.22
53689;BME280;39583;54.682;30.662;2023-07-13T18:06:44;98769.09;;;25.91;40.67
53689;BME280;39583;54.682;30.662;2023-07-13T18:09:26;98776.31;;;25.03;42.26
53689;BME280;39583;54.682;30.662;2023-07-13T18:11:54;98775.25;;;24.31;43.59
53689;BME280;39583;54.682;30.662;2023-07-13T18:14:25;98787.25;;;23.83;44.69
53689;BME280;39583;54.682;30.662;2023-07-13T18:16:55;98782.66;;;23.44;45.57
53689;BME280;39583;54.682;30.662;2023-07-13T18:21:57;98791.22;;;22.86;46.85
53689;BME280;39583;54.682;30.662;2023-07-13T18:24:24;98796.72;;;22.63;47.36
53689;BME280;39583;54.682;30.662;2023-07-13T18:26:53;98796.47;;;22.43;48.02
53689;BME280;39583;54.682;30.662;2023-07-13T18:29:20;98779.84;;;22.17;48.38
53689;BME280;39583;54.682;30.662;2023-07-13T18:31:48;98797.47;;;22.02;48.80
53689;BME280;39583;54.682;30.662;2023-07-13T18:34:15;98803.28;;;21.87;49.32
53689;BME280;39583;54.682;30.662;2023-07-13T18:36:43;98803.44;;;21.68;49.86
53689;BME280;39583;54.682;30.662;2023-07-13T18:39:14;98795.19;;;21.45;50.34
53689;BME280;39583;54.682;30.662;2023-07-13T18:41:43;98810.59;;;21.41;50.57
53689;BME280;39583;54.682;30.662;2023-07-13T18:44:12;98797.94;;;21.32;50.96
53689;BME280;39583;54.682;30.662;2023-07-13T18:46:40;98811.00;;;21.21;51.37
53689;BME280;39583;54.682;30.662;2023-07-13T18:49:10;98815.34;;;21.08;51.72
53689;BME280;39583;54.682;30.662;2023-07-13T18:51:39;98805.53;;;20.94;52.01
53689;BME280;39583;54.682;30.662;2023-07-13T18:54:12;98805.53;;;20.80;52.59
53689;BME280;39583;54.682;30.662;2023-07-13T18:56:41;98813.09;;;20.69;52.89
53689;BME280;39583;54.682;30.662;2023-07-13T18:59:09;98813.31;;;20.59;53.07
